Enter the Airport ICAO Code

Search by Airport or City

Current Weather

SCTE | El Tepual Airport

Puerto Montt, Chile

Last Update 35 Minutes Ago

Light Rain

Temperature of 07 ēC

Light to Moderate Winds from North

Temperature

07 ēC

Dew Point Temperature

07 ēC

Relative Humidity

100 %

Wind Direction

North (350ē, Without Significant Variations)

Wind Velocity

13 km/h (07 kt)

Gusts

None

Visibility

Reduced to 6.0 Kilometers

Sea Level Pressure

1018 hPa (Hectopascals)

Layers of Clouds

30% to 60% of Sky Covered from 91 mts (300 ft) Above Ground Level.

60% to 90% of Sky Covered from 213 mts (700 ft) Above Ground Level.

90% to 100% of Sky Covered from 3048 mts (10000 ft) Above Ground Level.

METAR SCTE 121400Z 35007KT 6000 -SHRA SCT003 BKN007 OVC100 07/07 Q1018 NOSIG

Weather Forecast

SCTE | El Tepual Airport

Puerto Montt, Chile

Forecast valid for the next 21 Hours

In the next 2 hours it is expected the begining of:

Light Rain

Moderate Winds from North

Maximum Temperature

No Data

Minimum Temperature

06 ēC in -3 Hours

TAF SCTE 121049Z 1212/1312 35005KT 9999 -SHRA SCT005 BKN020 TN06/1212Z TX10/1217Z BECMG 1215/1217 34010KT 8000 -RA SCT008 BKN030 BECMG 1223/1301 6000 -RA BKN005 BKN015 BECMG 1305/1307 9999 -RA BKN020